Time;durP1;ratioP1;P1;durP2;ratioP2;P2;SDS_P1;SDS_P2;PMS_P1;PMS_P2;Temp;Humidity;BMP_temperature;BMP_pressure;BME280_temperature;BME280_humidity;BME280_pressure;Samples;Min_cycle;Max_cycle;Signal;HPM_P1;HPM_P2
2021/11/18 00:00:56;;;;;;;2.08;1.98;;;;;;;5.35;99.72;99945.81;5003166;28;20026;-76
2021/11/18 00:03:23;;;;;;;1.83;1.73;;;;;;;5.31;99.02;99944.00;5009681;28;20116;-76
2021/11/18 00:05:48;;;;;;;2.88;1.70;;;;;;;5.38;99.55;99946.75;5014808;28;20538;-76
2021/11/18 00:08:14;;;;;;;1.02;1.02;;;;;;;5.34;100.00;99937.22;5015106;28;20113;-76
2021/11/18 00:10:56;;;;;;;1.63;1.35;;;;;;;5.43;100.00;99948.56;5014544;28;20018;-77
2021/11/18 00:13:31;;;;;;;2.83;2.15;;;;;;;5.41;100.00;99939.13;5015151;28;20105;-76
2021/11/18 00:15:57;;;;;;;0.80;0.80;;;;;;;5.45;99.65;99931.44;5014677;28;20018;-76
2021/11/18 00:18:25;;;;;;;1.92;1.67;;;;;;;5.48;98.85;99936.66;5011628;28;20060;-76
2021/11/18 00:21:11;;;;;;;1.20;1.15;;;;;;;5.50;99.60;99940.13;5014290;28;20048;-76
2021/11/18 00:23:40;;;;;;;1.35;1.25;;;;;;;5.34;100.00;99944.94;5014692;28;20061;-76
2021/11/18 00:26:08;;;;;;;1.88;1.77;;;;;;;5.47;100.00;99940.06;5014470;28;20379;-76
2021/11/18 00:28:34;;;;;;;2.22;2.13;;;;;;;5.50;100.00;99945.25;5014511;28;20036;-76
2021/11/18 00:31:01;;;;;;;2.65;2.35;;;;;;;5.45;100.00;99944.31;5003201;28;20034;-76
2021/11/18 00:33:27;;;;;;;1.38;1.27;;;;;;;5.45;100.00;99946.88;5009693;28;20025;-76
2021/11/18 00:35:52;;;;;;;2.42;2.22;;;;;;;5.34;100.00;99950.09;5014193;28;20049;-76
2021/11/18 00:38:20;;;;;;;1.88;1.77;;;;;;;5.28;100.00;99934.53;5005278;28;20061;-76
2021/11/18 00:40:49;;;;;;;2.03;1.92;;;;;;;5.23;100.00;99938.72;5004407;28;20042;-76
2021/11/18 00:43:16;;;;;;;3.78;2.72;;;;;;;5.21;100.00;99942.94;4995097;28;20026;-76
2021/11/18 00:45:42;;;;;;;4.10;2.25;;;;;;;5.25;100.00;99944.72;4994507;28;20026;-76
2021/11/18 00:48:08;;;;;;;1.05;1.05;;;;;;;5.19;100.00;99934.34;4994539;28;20034;-76
2021/11/18 00:50:38;;;;;;;2.30;2.17;;;;;;;5.22;100.00;99934.41;4994247;28;20499;-76
2021/11/18 00:53:04;;;;;;;1.65;1.55;;;;;;;5.21;100.00;99932.66;4994886;28;20065;-76
2021/11/18 00:55:30;;;;;;;2.95;2.70;;;;;;;5.18;100.00;99937.75;4994449;28;20053;-76
2021/11/18 00:57:56;;;;;;;3.17;1.92;;;;;;;5.13;100.00;99940.22;4994247;28;20031;-76
2021/11/18 05:16:19;;;;;;;3.63;3.37;;;;;;;5.45;100.00;100065.97;5559792;23;20681;-76
2021/11/18 05:18:45;;;;;;;4.75;2.47;;;;;;;5.43;100.00;100066.78;4917238;29;20036;-76
2021/11/18 05:21:14;;;;;;;3.17;2.53;;;;;;;5.46;100.00;100074.53;4916956;29;20064;-76
2021/11/18 05:23:41;;;;;;;2.20;1.90;;;;;;;5.56;100.00;100074.81;4917087;29;20043;-76
2021/11/18 05:26:10;;;;;;;4.95;2.63;;;;;;;5.58;100.00;100077.41;4917070;29;20115;-76
2021/11/18 05:28:35;;;;;;;4.00;1.53;;;;;;;5.62;100.00;100074.94;4916961;29;20473;-75
2021/11/18 05:31:01;;;;;;;3.25;3.05;;;;;;;5.65;100.00;100079.28;4967902;23;20039;-76
2021/11/18 05:33:28;;;;;;;3.10;2.20;;;;;;;5.61;100.00;100087.78;4940272;28;20027;-76
2021/11/18 05:35:55;;;;;;;4.35;2.45;;;;;;;5.64;100.00;100082.69;4935762;29;20024;-76
2021/11/18 05:38:22;;;;;;;3.65;2.50;;;;;;;5.64;100.00;100080.13;4935656;29;20039;-76
2021/11/18 05:40:47;;;;;;;3.95;3.47;;;;;;;5.58;100.00;100083.41;4935530;29;20027;-76
2021/11/18 05:43:13;;;;;;;2.22;2.13;;;;;;;5.64;100.00;100087.81;4935645;29;20033;-76
2021/11/18 05:45:39;;;;;;;4.78;3.70;;;;;;;5.63;100.00;100086.97;4935679;29;20024;-76
2021/11/18 05:48:07;;;;;;;5.45;2.50;;;;;;;5.59;100.00;100086.84;4935600;29;20504;-76
2021/11/18 05:50:35;;;;;;;3.83;2.88;;;;;;;5.62;100.00;100089.50;4896392;29;20038;-76
2021/11/18 05:53:01;;;;;;;3.67;1.95;;;;;;;5.61;100.00;100093.78;4916559;29;20449;-76
2021/11/18 05:55:29;;;;;;;2.28;1.88;;;;;;;5.58;100.00;100095.41;4916065;29;20107;-76
2021/11/18 05:57:54;;;;;;;2.33;2.05;;;;;;;5.69;100.00;100096.50;4916367;29;20024;-77
2021/11/18 06:00:23;;;;;;;4.72;3.55;;;;;;;5.65;100.00;100099.84;4921990;29;20036;-78
2021/11/18 06:02:50;;;;;;;2.88;2.58;;;;;;;5.60;100.00;100096.28;4927403;29;20032;-77
2021/11/18 06:05:16;;;;;;;1.85;1.75;;;;;;;5.61;100.00;100108.34;4935129;29;20401;-78
2021/11/18 06:07:42;;;;;;;4.05;3.03;;;;;;;5.57;100.00;100107.41;4935374;29;20031;-78
2021/11/18 06:10:08;;;;;;;2.22;1.63;;;;;;;5.56;100.00;100099.63;4935031;29;20063;-78
2021/11/18 06:12:34;;;;;;;3.58;2.60;;;;;;;5.54;100.00;100101.31;4935189;29;20019;-77
2021/11/18 06:15:00;;;;;;;3.88;2.20;;;;;;;5.53;100.00;100109.84;4935118;29;20039;-78
2021/11/18 06:17:25;;;;;;;2.15;1.95;;;;;;;5.62;100.00;100104.94;4935146;29;20024;-78
2021/11/18 06:19:50;;;;;;;2.97;2.78;;;;;;;5.78;100.00;100103.56;4934868;29;20127;-77
2021/11/18 06:22:18;;;;;;;3.28;2.97;;;;;;;5.72;100.00;100111.16;4935008;29;20172;-78
2021/11/18 06:24:44;;;;;;;6.50;2.08;;;;;;;5.80;100.00;100095.06;4935066;29;20019;-78
2021/11/18 06:27:09;;;;;;;2.38;2.17;;;;;;;5.95;100.00;100098.81;4935079;29;20036;-77
2021/11/18 06:29:35;;;;;;;3.13;2.55;;;;;;;5.84;100.00;100102.00;4927755;29;20034;-77
2021/11/18 06:32:04;;;;;;;2.72;2.08;;;;;;;5.71;100.00;100110.28;4926825;29;20039;-78
2021/11/18 06:34:30;;;;;;;4.75;2.33;;;;;;;5.66;100.00;100114.47;4934762;29;20030;-77
2021/11/18 06:36:56;;;;;;;2.85;2.63;;;;;;;5.64;100.00;100105.81;4934933;29;20028;-78
2021/11/18 06:39:22;;;;;;;14.55;2.63;;;;;;;5.59;100.00;100110.00;4934723;29;20035;-78
2021/11/18 06:41:49;;;;;;;3.53;2.58;;;;;;;5.53;100.00;100115.00;4934711;29;20039;-77
2021/11/18 06:44:16;;;;;;;4.57;3.45;;;;;;;5.68;100.00;100116.22;4934864;29;20034;-77
2021/11/18 06:46:41;;;;;;;1.90;1.85;;;;;;;5.66;100.00;100132.47;4934728;29;20066;-78
2021/11/18 06:49:10;;;;;;;2.67;2.47;;;;;;;5.53;100.00;100135.56;4934605;29;20028;-77
2021/11/18 06:51:41;;;;;;;3.13;2.43;;;;;;;5.54;100.00;100137.28;4934807;29;20031;-77
2021/11/18 06:54:08;;;;;;;2.50;2.30;;;;;;;5.56;100.00;100140.75;4934901;29;20282;-78
2021/11/18 06:56:33;;;;;;;2.08;1.92;;;;;;;5.69;100.00;100142.78;4934621;29;20024;-78
2021/11/18 06:58:59;;;;;;;4.65;3.45;;;;;;;5.76;100.00;100146.41;4932239;29;20075;-78
2021/11/18 07:01:25;;;;;;;3.08;2.80;;;;;;;5.57;100.00;100145.09;4923205;29;20066;-77
2021/11/18 07:03:51;;;;;;;2.00;1.88;;;;;;;5.60;100.00;100155.44;4933224;29;20051;-78
2021/11/18 07:06:20;;;;;;;5.40;3.25;;;;;;;5.57;100.00;100157.94;4934535;29;20027;-78
2021/11/18 07:08:46;;;;;;;3.58;3.28;;;;;;;5.62;100.00;100164.94;4938052;29;20477;-77
2021/11/18 07:11:12;;;;;;;3.63;3.03;;;;;;;5.61;100.00;100165.78;4938251;29;20032;-78
2021/11/18 07:13:39;;;;;;;3.40;2.40;;;;;;;5.65;100.00;100158.97;4938837;29;20077;-77
2021/11/18 07:16:07;;;;;;;2.75;2.55;;;;;;;5.65;100.00;100167.56;4938177;29;20027;-78
2021/11/18 07:18:33;;;;;;;2.05;1.95;;;;;;;5.71;100.00;100166.88;4938279;29;20536;-78
2021/11/18 07:20:59;;;;;;;5.82;4.43;;;;;;;5.75;100.00;100178.94;4938083;29;20028;-78
2021/11/18 07:23:24;;;;;;;4.85;3.13;;;;;;;5.78;100.00;100171.31;4936986;29;20074;-77
2021/11/18 07:25:53;;;;;;;3.05;2.00;;;;;;;5.80;100.00;100179.94;4938255;29;20020;-78
2021/11/18 07:28:20;;;;;;;3.42;2.75;;;;;;;5.80;100.00;100177.38;4938128;29;20027;-78
2021/11/18 07:30:47;;;;;;;3.70;2.28;;;;;;;5.85;100.00;100186.06;4929086;29;20084;-78
2021/11/18 07:33:13;;;;;;;3.33;3.13;;;;;;;5.76;100.00;100172.97;4931673;29;20019;-78
2021/11/18 07:35:40;;;;;;;4.15;2.38;;;;;;;5.80;100.00;100186.75;4937984;29;20032;-78
2021/11/18 07:38:05;;;;;;;2.90;2.40;;;;;;;5.76;100.00;100185.84;4938008;29;20023;-77
2021/11/18 07:40:31;;;;;;;12.32;4.35;;;;;;;5.74;100.00;100192.63;4937727;29;20083;-77
2021/11/18 07:42:57;;;;;;;3.05;2.88;;;;;;;5.79;100.00;100198.75;4937859;29;20027;-77
2021/11/18 07:45:24;;;;;;;7.38;3.17;;;;;;;5.75;100.00;100194.34;4937772;29;20039;-77
2021/11/18 07:47:50;;;;;;;4.32;3.22;;;;;;;5.70;100.00;100198.53;4937759;29;20083;-77
2021/11/18 07:50:16;;;;;;;3.90;2.92;;;;;;;5.62;100.00;100197.50;4936445;29;20047;-77
2021/11/18 07:52:42;;;;;;;6.40;3.22;;;;;;;5.74;100.00;100200.34;4937654;29;20090;-77
2021/11/18 07:55:10;;;;;;;3.30;3.00;;;;;;;5.77;100.00;100203.00;4937691;29;20481;-77
2021/11/18 07:57:36;;;;;;;3.33;3.03;;;;;;;5.71;100.00;100202.84;4938029;29;20038;-77
2021/11/18 08:00:05;;;;;;;3.25;3.03;;;;;;;5.64;100.00;100203.53;4930087;29;20106;-77
2021/11/18 08:02:31;;;;;;;3.58;3.28;;;;;;;5.67;100.00;100204.47;4929677;29;20053;-77
2021/11/18 08:04:56;;;;;;;4.05;3.35;;;;;;;5.75;100.00;100206.34;4937496;29;20482;-77
2021/11/18 08:07:21;;;;;;;1.95;1.85;;;;;;;5.80;100.00;100203.09;4937507;29;20036;-78
2021/11/18 08:09:46;;;;;;;4.75;3.55;;;;;;;6.09;100.00;100210.63;4937208;29;20050;-78
2021/11/18 08:12:12;;;;;;;4.50;4.03;;;;;;;6.29;100.00;100205.97;4937368;29;20047;-77
2021/11/18 08:14:37;;;;;;;4.28;3.88;;;;;;;6.41;100.00;100204.50;4937082;29;20037;-77
2021/11/18 08:17:03;;;;;;;5.53;4.20;;;;;;;6.54;100.00;100202.22;4937359;29;20481;-77
2021/11/18 08:19:29;;;;;;;6.43;4.90;;;;;;;6.52;100.00;100206.44;4935171;29;20118;-77
2021/11/18 08:21:55;;;;;;;10.50;3.83;;;;;;;6.57;100.00;100204.81;4937222;29;20027;-77
2021/11/18 08:24:22;;;;;;;6.95;2.80;;;;;;;6.59;100.00;100203.16;4937130;29;20031;-77
2021/11/18 08:26:49;;;;;;;2.47;2.30;;;;;;;6.63;100.00;100200.69;4937097;29;20032;-78
2021/11/18 08:29:17;;;;;;;3.40;2.75;;;;;;;6.66;100.00;100205.03;4922037;29;20097;-78
2021/11/18 08:31:46;;;;;;;5.80;3.92;;;;;;;6.49;100.00;100206.38;4907573;29;20039;-77
2021/11/18 08:34:11;;;;;;;6.25;4.38;;;;;;;6.35;100.00;100214.69;4917983;29;20039;-77
2021/11/18 08:36:37;;;;;;;4.95;3.58;;;;;;;6.49;100.00;100216.69;4917905;29;20028;-77
2021/11/18 08:39:11;;;;;;;4.40;3.10;;;;;;;6.34;100.00;100218.09;4917835;29;20024;-78
2021/11/18 08:41:37;;;;;;;11.18;3.90;;;;;;;6.34;100.00;100218.09;4917737;29;20067;-77
2021/11/18 08:44:03;;;;;;;8.43;3.25;;;;;;;6.27;100.00;100221.34;4917820;29;20024;-78
2021/11/18 08:46:29;;;;;;;7.32;4.90;;;;;;;6.28;100.00;100217.94;4917620;29;20031;-78
2021/11/18 08:49:00;;;;;;;4.63;4.22;;;;;;;6.26;100.00;100229.03;4917675;29;20028;-77
2021/11/18 08:51:26;;;;;;;5.55;3.83;;;;;;;6.41;100.00;100225.09;4917655;29;20043;-77
2021/11/18 08:53:54;;;;;;;4.70;3.70;;;;;;;6.51;100.00;100227.88;4917659;29;20032;-78
2021/11/18 08:56:22;;;;;;;3.95;3.55;;;;;;;6.62;100.00;100222.13;4917472;29;20028;-77
2021/11/18 08:58:51;;;;;;;4.20;2.58;;;;;;;6.55;100.00;100217.69;4916610;29;20067;-78
2021/11/18 09:01:27;;;;;;;2.30;2.20;;;;;;;6.53;100.00;100223.66;4906229;29;20071;-78
2021/11/18 09:03:52;;;;;;;7.43;5.05;;;;;;;6.67;100.00;100227.34;4916437;29;20338;-78
2021/11/18 09:06:20;;;;;;;4.55;3.13;;;;;;;6.86;100.00;100224.31;4917414;29;20027;-78
2021/11/18 09:08:46;;;;;;;3.67;3.22;;;;;;;6.77;100.00;100229.31;4917324;29;20024;-78
2021/11/18 09:11:13;;;;;;;5.60;2.85;;;;;;;6.79;100.00;100234.50;4917124;29;20546;-78
2021/11/18 09:13:40;;;;;;;4.15;3.55;;;;;;;6.87;100.00;100238.97;4917240;29;20060;-72
2021/11/18 09:16:06;;;;;;;3.00;2.72;;;;;;;6.89;100.00;100239.84;4917152;29;20028;-77
2021/11/18 09:18:33;;;;;;;4.65;3.00;;;;;;;7.01;99.32;100234.09;4917160;29;20039;-78
2021/11/18 09:20:59;;;;;;;3.30;2.97;;;;;;;6.99;99.91;100234.88;4916876;29;20404;-72
2021/11/18 09:23:30;;;;;;;7.03;3.35;;;;;;;6.78;99.48;100243.94;4917179;29;20040;-71
2021/11/18 09:25:55;;;;;;;3.10;2.80;;;;;;;6.99;99.17;100234.88;4917258;29;20016;-72
2021/11/18 09:28:23;;;;;;;3.88;3.33;;;;;;;7.35;99.03;100232.13;4916910;29;20087;-72
2021/11/18 09:30:52;;;;;;;6.70;4.97;;;;;;;7.43;97.57;100234.00;4907761;29;20035;-72
2021/11/18 09:33:18;;;;;;;4.72;3.30;;;;;;;7.58;96.89;100237.72;4911261;29;20028;-72
2021/11/18 09:35:48;;;;;;;2.88;2.63;;;;;;;7.77;94.92;100239.75;4916741;29;20032;-72
2021/11/18 09:38:15;;;;;;;4.22;2.65;;;;;;;7.64;93.56;100240.38;4917072;29;20032;-71
2021/11/18 09:40:46;;;;;;;3.97;3.58;;;;;;;7.54;94.84;100241.06;4916632;29;20389;-71
2021/11/18 09:43:17;;;;;;;6.22;5.13;;;;;;;7.73;94.77;100246.56;4916745;29;20050;-71
2021/11/18 09:45:56;;;;;;;6.13;2.95;;;;;;;7.40;95.84;100233.97;4916714;29;20474;-71
2021/11/18 09:48:44;;;;;;;4.45;3.53;;;;;;;7.35;95.50;100239.88;4916590;29;20032;-71
2021/11/18 09:51:27;;;;;;;3.28;2.85;;;;;;;6.99;97.48;100240.03;4916440;29;20028;-71
2021/11/18 09:54:16;;;;;;;6.90;3.17;;;;;;;7.17;98.88;100237.84;4916512;29;20039;-71
2021/11/18 09:56:57;;;;;;;3.97;2.47;;;;;;;7.55;97.59;100232.53;4916377;29;20039;-71
2021/11/18 09:59:23;;;;;;;7.00;3.65;;;;;;;8.06;92.45;100222.16;4910857;29;20494;-71
2021/11/18 10:02:05;;;;;;;8.30;4.05;;;;;;;8.09;92.86;100219.66;4906762;29;20037;-71
2021/11/18 10:04:52;;;;;;;8.13;3.30;;;;;;;8.29;89.53;100225.09;4916336;29;20040;-71
2021/11/18 10:07:24;;;;;;;5.80;2.97;;;;;;;8.91;87.89;100222.53;4912943;29;20068;-71
2021/11/18 10:10:19;;;;;;;3.13;2.20;;;;;;;9.27;86.00;100231.53;4916228;29;20414;-72
2021/11/18 10:13:08;;;;;;;3.65;2.95;;;;;;;8.52;88.43;100227.19;4916385;29;20315;-71
2021/11/18 10:15:42;;;;;;;3.33;3.00;;;;;;;7.86;89.35;100229.59;4916223;29;20482;-71
2021/11/18 10:18:39;;;;;;;6.05;3.28;;;;;;;8.57;88.00;100226.41;4916431;29;20140;-71
2021/11/18 10:21:13;;;;;;;3.47;1.98;;;;;;;9.60;85.21;100217.22;4916003;29;20028;-72
2021/11/18 10:23:39;;;;;;;3.95;3.35;;;;;;;9.90;83.05;100225.22;4915916;29;20452;-72
2021/11/18 10:26:09;;;;;;;5.88;2.63;;;;;;;10.40;78.47;100217.00;4916057;29;20486;-72
2021/11/18 10:29:05;;;;;;;3.85;3.45;;;;;;;9.44;82.58;100213.63;4916142;29;20039;-72
2021/11/18 10:31:51;;;;;;;4.43;2.88;;;;;;;10.41;80.10;100208.34;4900313;29;20097;-71
2021/11/18 10:34:29;;;;;;;3.63;2.65;;;;;;;11.19;74.81;100203.47;4878440;29;20055;-72
2021/11/18 10:37:20;;;;;;;5.00;3.17;;;;;;;10.85;76.21;100214.63;4884256;29;20120;-72
2021/11/18 10:39:51;;;;;;;3.05;2.65;;;;;;;11.30;73.43;100211.28;4915510;29;20024;-72
2021/11/18 10:42:29;;;;;;;3.53;2.55;;;;;;;10.96;74.15;100213.78;4915398;29;20027;-71
2021/11/18 10:45:00;;;;;;;3.88;2.30;;;;;;;10.11;77.35;100218.50;4915837;29;20030;-72
2021/11/18 10:47:32;;;;;;;4.93;2.53;;;;;;;10.59;77.12;100206.69;4915880;29;20032;-72
2021/11/18 10:50:59;;;;;;;3.70;2.42;;;;;;;10.29;76.56;100196.19;4915613;29;20036;-71
2021/11/18 10:53:28;;;;;;;5.40;2.38;;;;;;;10.88;73.81;100192.16;4890801;29;20155;-71
2021/11/18 10:55:59;;;;;;;3.13;2.78;;;;;;;10.52;75.18;100196.31;4904392;29;20028;-72
2021/11/18 10:58:25;;;;;;;2.78;2.58;;;;;;;9.81;76.07;100198.41;4896907;29;20033;-72
2021/11/18 11:01:02;;;;;;;2.22;2.03;;;;;;;9.45;79.77;100190.34;4904096;29;20127;-71
2021/11/18 11:03:30;;;;;;;7.97;2.53;;;;;;;9.47;80.84;100198.97;4911333;29;20060;-71
2021/11/18 11:06:09;;;;;;;3.85;2.60;;;;;;;9.86;79.31;100197.56;4915603;29;20024;-72
2021/11/18 11:08:37;;;;;;;5.73;3.27;;;;;;;9.95;77.46;100197.63;4915717;29;20032;-74
2021/11/18 11:11:07;;;;;;;3.88;3.17;;;;;;;10.10;76.90;100201.19;4915263;29;20515;-72
2021/11/18 11:13:57;;;;;;;2.55;1.60;;;;;;;10.03;78.24;100211.53;4915556;29;20496;-72
2021/11/18 11:16:42;;;;;;;4.80;2.78;;;;;;;9.71;78.71;100198.31;4915504;29;20034;-72
2021/11/18 11:19:29;;;;;;;3.00;2.35;;;;;;;8.66;83.31;100210.16;4904840;29;20054;-72
2021/11/18 11:22:24;;;;;;;4.10;2.97;;;;;;;8.87;84.22;100205.25;4915339;29;20449;-71
2021/11/18 11:25:16;;;;;;;1.90;1.80;;;;;;;9.20;81.99;100203.88;4904549;29;20061;-72
2021/11/18 11:28:09;;;;;;;4.75;2.85;;;;;;;9.12;81.31;100195.16;4912851;29;20051;-71
2021/11/18 11:30:39;;;;;;;3.95;1.85;;;;;;;9.29;81.90;100188.47;4907809;29;20024;-71
2021/11/18 11:33:17;;;;;;;2.13;2.03;;;;;;;9.49;81.90;100186.06;4901120;29;20123;-77
2021/11/18 11:35:48;;;;;;;9.27;2.28;;;;;;;9.64;79.38;100186.19;4915228;29;20028;-77
2021/11/18 11:38:19;;;;;;;6.13;3.33;;;;;;;9.59;78.29;100187.00;4915153;29;20035;-77
2021/11/18 11:41:12;;;;;;;2.83;2.53;;;;;;;9.44;79.61;100192.91;4914866;29;20102;-77
2021/11/18 11:44:08;;;;;;;2.92;2.03;;;;;;;9.42;82.17;100187.72;4915162;29;20458;-77
2021/11/18 11:46:52;;;;;;;3.20;2.90;;;;;;;9.49;79.45;100186.94;4914918;29;20040;-77
2021/11/18 11:49:29;;;;;;;2.40;2.10;;;;;;;9.29;81.24;100178.13;4915010;29;20035;-78
2021/11/18 11:52:01;;;;;;;7.30;3.53;;;;;;;9.27;80.84;100177.22;4915031;29;20028;-77
2021/11/18 11:54:45;;;;;;;4.53;2.83;;;;;;;9.40;80.45;100180.81;4905753;29;20027;-78
2021/11/18 11:57:22;;;;;;;5.22;2.83;;;;;;;9.86;79.12;100186.34;4881093;29;20041;-77
2021/11/18 12:00:53;;;;;;;4.10;2.42;;;;;;;10.45;75.47;100189.38;5097611;28;20922;-79
2021/11/18 12:03:24;;;;;;;5.15;2.33;;;;;;;11.07;75.49;100186.19;5083315;28;20036;-74
2021/11/18 12:05:55;;;;;;;3.63;2.65;;;;;;;11.31;72.37;100195.75;5089297;28;20024;-74
2021/11/18 12:08:35;;;;;;;4.50;2.75;;;;;;;10.57;74.41;100187.69;5089195;28;20483;-74
2021/11/18 12:11:16;;;;;;;;;;;;;;;9.61;78.44;100200.81;5089445;28;20024;-74
2021/11/18 12:13:59;;;;;;;4.18;2.63;;;;;;;9.36;80.07;100189.38;5089086;28;20002;-74
2021/11/18 12:16:27;;;;;;;7.10;2.92;;;;;;;9.13;81.34;100186.56;5089204;28;20496;-74
2021/11/18 12:19:00;;;;;;;5.47;3.03;;;;;;;9.17;82.51;100180.56;5088788;28;20024;-74
2021/11/18 12:21:26;;;;;;;3.10;1.58;;;;;;;8.95;82.41;100176.91;5089096;28;20051;-74
2021/11/18 12:24:13;;;;;;;3.83;2.70;;;;;;;8.93;83.13;100163.94;5078459;28;20020;-74
2021/11/18 12:27:00;;;;;;;5.43;3.70;;;;;;;9.04;82.30;100165.78;5085607;28;20085;-74
2021/11/18 12:29:31;;;;;;;5.70;1.85;;;;;;;9.06;83.35;100169.25;5076490;28;20028;-74
2021/11/18 12:32:08;;;;;;;4.07;2.22;;;;;;;8.80;82.16;100177.59;5079133;28;20466;-74
2021/11/18 12:34:55;;;;;;;4.63;2.25;;;;;;;8.88;82.41;100181.13;5088835;28;20226;-74
2021/11/18 12:37:25;;;;;;;3.20;2.08;;;;;;;9.04;81.83;100174.38;5088670;28;20039;-74
2021/11/18 12:39:50;;;;;;;2.08;1.45;;;;;;;9.40;80.77;100166.16;5088541;28;20020;-74
2021/11/18 12:42:31;;;;;;;3.40;2.38;;;;;;;9.52;79.94;100161.09;5088573;28;20085;-74
2021/11/18 12:45:20;;;;;;;2.00;1.90;;;;;;;9.39;80.38;100159.25;5088527;28;20435;-74
2021/11/18 12:47:48;;;;;;;;;;;;;;;9.63;80.53;100162.91;5088987;28;20070;-74
2021/11/18 12:50:41;;;;;;;1.90;1.80;;;;;;;9.37;81.35;100149.72;5088128;28;19918;-74
2021/11/18 12:53:17;;;;;;;1.92;1.83;;;;;;;9.20;81.59;100141.81;5080504;28;20016;-74
2021/11/18 12:55:51;;;;;;;3.47;3.17;;;;;;;9.42;81.00;100140.28;5079723;28;20496;-74
2021/11/18 12:58:23;;;;;;;1.58;1.15;;;;;;;9.57;80.96;100142.13;5088226;28;20024;-74
2021/11/18 13:00:59;;;;;;;2.10;2.00;;;;;;;9.62;81.23;100140.44;5070878;28;20024;-74
2021/11/18 13:03:43;;;;;;;2.67;2.45;;;;;;;9.71;80.84;100140.50;5083032;28;20020;-74
2021/11/18 13:06:10;;;;;;;1.42;1.33;;;;;;;9.51;81.11;100143.81;5087961;28;20095;-74
2021/11/18 13:08:38;;;;;;;2.58;2.38;;;;;;;9.75;80.43;100142.28;5088098;28;20032;-74
2021/11/18 13:11:26;;;;;;;3.13;2.25;;;;;;;9.57;78.92;100136.94;5079970;28;20028;-74
2021/11/18 13:14:10;;;;;;;5.43;3.00;;;;;;;9.29;77.50;100136.75;5073191;28;20426;-74
2021/11/18 13:16:48;;;;;;;2.65;2.00;;;;;;;9.18;79.29;100140.91;5074319;28;20054;-74
2021/11/18 13:19:31;;;;;;;3.30;3.00;;;;;;;8.91;81.37;100141.53;5074167;28;20504;-74
2021/11/18 13:22:05;;;;;;;8.45;1.83;;;;;;;8.97;80.87;100139.88;5074072;28;20089;-73
2021/11/18 13:24:45;;;;;;;2.78;2.50;;;;;;;8.78;81.94;100127.59;5058636;28;20017;-74
2021/11/18 13:27:21;;;;;;;1.48;1.38;;;;;;;8.80;82.01;100131.09;5034244;28;20087;-74
2021/11/18 13:29:49;;;;;;;4.60;2.42;;;;;;;8.92;80.49;100130.34;5036662;28;20020;-74
2021/11/18 13:32:17;;;;;;;1.98;1.60;;;;;;;8.87;82.19;100119.94;5065652;28;20017;-74
2021/11/18 13:34:59;;;;;;;2.50;1.63;;;;;;;8.84;81.77;100111.28;5072926;28;20453;-74
2021/11/18 13:37:32;;;;;;;2.05;1.73;;;;;;;8.86;81.83;100104.44;5073816;28;20028;-74
2021/11/18 13:40:23;;;;;;;2.15;1.70;;;;;;;8.91;82.05;100118.28;5074064;28;20473;-74
2021/11/18 13:42:57;;;;;;;1.17;1.10;;;;;;;8.79;81.76;100113.81;5065274;28;20076;-74
2021/11/18 13:45:28;;;;;;;2.15;1.40;;;;;;;8.54;83.63;100107.50;5074148;28;20028;-74
2021/11/18 13:47:59;;;;;;;3.35;1.85;;;;;;;8.65;83.01;100110.22;5074381;28;20355;-74
2021/11/18 13:50:36;;;;;;;1.25;1.15;;;;;;;8.63;83.13;100117.09;5073789;28;20381;-74
2021/11/18 13:53:14;;;;;;;1.60;1.50;;;;;;;8.60;84.63;100117.03;5065830;28;20017;-74
2021/11/18 13:55:48;;;;;;;3.00;1.63;;;;;;;8.52;82.88;100105.78;5065560;28;20098;-74
2021/11/18 13:58:16;;;;;;;2.90;1.15;;;;;;;8.53;82.78;100104.94;5073655;28;20024;-74
2021/11/18 14:00:44;;;;;;;13.48;7.78;;;;;;;8.64;84.13;100103.31;5057557;28;20024;-74
2021/11/18 14:03:16;;;;;;;3.20;2.20;;;;;;;8.63;85.09;100107.63;5066382;28;20028;-74
2021/11/18 14:05:51;;;;;;;2.13;1.92;;;;;;;8.62;84.77;100099.88;5073549;28;20032;-74
2021/11/18 14:08:24;;;;;;;3.10;1.70;;;;;;;8.83;84.02;100089.75;5073460;28;20028;-74
2021/11/18 14:10:54;;;;;;;2.78;2.35;;;;;;;9.00;83.06;100093.38;5073219;28;20028;-74
2021/11/18 14:13:40;;;;;;;1.70;1.55;;;;;;;9.07;81.60;100098.59;5073424;28;20473;-74
2021/11/18 14:16:30;;;;;;;1.10;1.00;;;;;;;8.84;81.61;100101.81;5073430;28;20023;-74
2021/11/18 14:19:17;;;;;;;1.15;1.15;;;;;;;8.74;83.91;100105.16;5073479;28;20516;-74
2021/11/18 14:22:08;;;;;;;1.95;1.50;;;;;;;8.60;85.66;100105.00;5072584;28;20048;-74
2021/11/18 14:24:44;;;;;;;1.35;1.25;;;;;;;8.63;85.73;100101.59;5057407;28;20025;-74
2021/11/18 14:27:21;;;;;;;4.93;1.75;;;;;;;8.69;85.73;100099.06;5033273;28;20349;-74
2021/11/18 14:30:01;;;;;;;1.10;1.10;;;;;;;8.58;85.79;100103.25;5035485;28;20080;-74
2021/11/18 14:33:04;;;;;;;3.80;1.63;;;;;;;8.31;85.29;100103.75;5064733;28;20020;-74
2021/11/18 14:35:55;;;;;;;1.38;1.35;;;;;;;8.38;85.89;100110.78;5072941;28;20054;-74
2021/11/18 14:38:33;;;;;;;4.13;2.63;;;;;;;8.53;86.60;100099.75;5072982;28;20028;-74
2021/11/18 14:41:20;;;;;;;1.95;1.85;;;;;;;8.30;85.83;100099.44;5072632;28;20029;-74
2021/11/18 14:43:48;;;;;;;1.55;1.45;;;;;;;8.59;86.16;100089.50;5072958;28;20145;-74
2021/11/18 14:46:29;;;;;;;2.05;1.85;;;;;;;8.51;87.25;100102.34;5072673;28;20056;-74
2021/11/18 14:49:10;;;;;;;1.90;1.80;;;;;;;8.57;86.55;100096.38;5072792;28;20020;-74
2021/11/18 14:51:45;;;;;;;4.78;2.03;;;;;;;8.43;86.34;100104.81;5072679;28;20032;-74
2021/11/18 14:54:25;;;;;;;3.10;2.75;;;;;;;8.24;87.32;100115.72;5059933;28;20091;-73
2021/11/18 14:56:54;;;;;;;2.15;2.05;;;;;;;8.18;88.71;100120.81;5071175;28;20028;-73
2021/11/18 14:59:23;;;;;;;3.05;2.30;;;;;;;8.39;87.79;100126.28;5061862;28;20113;-73
2021/11/18 15:02:00;;;;;;;1.63;1.53;;;;;;;8.50;86.55;100137.59;5060380;28;20260;-73
2021/11/18 15:04:29;;;;;;;2.50;2.30;;;;;;;8.22;87.79;100149.28;5056800;28;20045;-74
2021/11/18 15:06:56;;;;;;;3.95;2.70;;;;;;;8.09;89.10;100149.09;5032576;28;20398;-79
2021/11/18 15:09:29;;;;;;;2.10;1.92;;;;;;;7.97;88.83;100142.00;5032454;28;20026;-72
2021/11/18 15:12:03;;;;;;;7.55;2.90;;;;;;;7.75;89.58;100135.69;5032497;28;20025;-72
2021/11/18 15:14:30;;;;;;;3.42;3.13;;;;;;;7.73;89.03;100134.78;5032606;28;20520;-72
2021/11/18 15:16:56;;;;;;;4.53;2.47;;;;;;;7.80;90.47;100131.47;5032484;28;20440;-73
2021/11/18 15:19:23;;;;;;;6.53;2.13;;;;;;;7.84;90.95;100128.09;5032170;28;20021;-72
2021/11/18 15:21:49;;;;;;;4.55;2.00;;;;;;;8.07;89.79;100132.69;5032263;28;20056;-72
2021/11/18 15:24:20;;;;;;;2.50;2.30;;;;;;;7.97;88.84;100135.13;5019119;28;20475;-72
2021/11/18 15:26:45;;;;;;;1.55;1.45;;;;;;;7.94;87.94;100135.13;5030112;28;20438;-72
2021/11/18 15:29:12;;;;;;;2.67;1.98;;;;;;;7.88;87.20;100137.63;5024141;28;20105;-72
2021/11/18 15:31:38;;;;;;;3.47;2.60;;;;;;;8.21;87.40;100123.41;5017201;28;20105;-72
2021/11/18 15:34:06;;;;;;;3.72;2.40;;;;;;;7.98;89.41;100139.47;5031849;28;20516;-72
2021/11/18 15:36:32;;;;;;;2.30;1.73;;;;;;;7.82;89.11;100137.50;5032141;28;20033;-72
2021/11/18 15:38:59;;;;;;;1.67;1.52;;;;;;;8.03;88.66;100129.22;5031968;28;20040;-73
2021/11/18 15:41:37;;;;;;;2.17;1.98;;;;;;;8.01;87.16;100132.63;5031993;28;20021;-72
2021/11/18 15:44:04;;;;;;;2.97;2.00;;;;;;;7.87;88.29;100135.00;5032197;28;20037;-72
2021/11/18 15:46:32;;;;;;;2.67;1.92;;;;;;;7.88;88.37;100134.13;5031955;28;20022;-72
2021/11/18 15:48:58;;;;;;;2.97;2.67;;;;;;;7.77;89.45;100136.56;5031874;28;20032;-72
2021/11/18 15:51:25;;;;;;;1.92;1.83;;;;;;;7.63;90.93;100143.22;5031957;28;20390;-72
2021/11/18 15:53:51;;;;;;;2.95;1.75;;;;;;;7.70;90.21;100155.38;5021812;28;20036;-72
2021/11/18 15:56:20;;;;;;;1.75;1.42;;;;;;;7.65;90.23;100157.03;5025705;28;20433;-72
2021/11/18 15:58:46;;;;;;;2.33;2.13;;;;;;;7.44;91.49;100153.22;5030515;28;20033;-72
2021/11/18 16:01:17;;;;;;;2.53;1.67;;;;;;;7.47;91.56;100155.88;5013202;28;20475;-73
2021/11/18 16:03:43;;;;;;;3.15;2.85;;;;;;;7.46;91.02;100155.84;5029225;28;20025;-72
2021/11/18 16:06:10;;;;;;;6.38;2.03;;;;;;;7.53;92.50;100156.81;5031887;28;20105;-73
2021/11/18 16:08:36;;;;;;;2.35;2.15;;;;;;;7.55;90.27;100152.56;5031802;28;20033;-72
2021/11/18 16:11:12;;;;;;;2.10;1.67;;;;;;;7.45;91.24;100155.00;5031577;28;20064;-72